createdAt,value
2019-02-07T00:01:24.485Z,36.53
2019-02-07T00:03:52.550Z,32.43
2019-02-07T00:06:20.713Z,36.47
2019-02-07T00:08:48.786Z,38.10
2019-02-07T00:11:16.895Z,37.23
2019-02-07T00:13:44.955Z,37.50
2019-02-07T00:16:13.009Z,34.13
2019-02-07T00:18:41.592Z,33.20
2019-02-07T00:21:09.686Z,35.00
2019-02-07T00:23:37.852Z,37.10
2019-02-07T00:26:05.951Z,35.77
2019-02-07T00:28:34.041Z,33.53
2019-02-07T00:31:02.105Z,34.77
2019-02-07T00:33:30.199Z,33.97
2019-02-07T00:35:58.279Z,36.63
2019-02-07T00:38:26.345Z,32.30
2019-02-07T00:40:54.417Z,36.50
2019-02-07T00:43:22.483Z,40.43
2019-02-07T00:45:50.553Z,35.50
2019-02-07T00:48:18.627Z,36.60
2019-02-07T00:50:47.705Z,33.80
2019-02-07T00:53:15.818Z,36.37
2019-02-07T00:55:43.924Z,34.43
2019-02-07T00:58:11.992Z,30.33
2019-02-07T01:00:40.082Z,32.67
2019-02-07T01:03:08.157Z,34.13
2019-02-07T01:05:36.225Z,35.37
2019-02-07T01:08:04.733Z,32.33
2019-02-07T01:10:32.931Z,32.70
2019-02-07T01:13:01.009Z,30.53
2019-02-07T01:15:29.343Z,32.83
2019-02-07T01:17:57.480Z,32.10
2019-02-07T01:20:25.951Z,31.90
2019-02-07T01:22:54.667Z,32.83
2019-02-07T01:25:22.853Z,31.37
2019-02-07T01:27:51.051Z,32.63
2019-02-07T01:30:20.077Z,30.90
2019-02-07T01:32:48.267Z,36.53
2019-02-07T01:35:16.362Z,29.77
2019-02-07T01:37:44.530Z,29.73
2019-02-07T01:40:14.437Z,30.30
2019-02-07T01:42:42.508Z,33.90
2019-02-07T01:45:13.166Z,30.07
2019-02-07T01:47:41.142Z,34.90
2019-02-07T01:50:10.575Z,33.63
2019-02-07T01:52:38.644Z,34.47
2019-02-07T01:55:07.657Z,30.47
2019-02-07T01:57:35.746Z,31.57
2019-02-07T02:00:06.274Z,28.63
2019-02-07T02:02:34.389Z,30.03
2019-02-07T02:05:02.581Z,30.77
2019-02-07T02:07:30.650Z,32.00
2019-02-07T02:09:58.705Z,34.63
2019-02-07T02:12:26.784Z,32.93
2019-02-07T02:14:54.844Z,34.50
2019-02-07T02:17:22.927Z,32.10
2019-02-07T02:19:50.999Z,33.40
2019-02-07T02:22:19.080Z,34.87
2019-02-07T02:24:47.183Z,31.20
2019-02-07T02:27:15.794Z,33.90
2019-02-07T02:29:43.882Z,34.27
2019-02-07T02:32:11.956Z,34.90
2019-02-07T02:34:40.118Z,33.17
2019-02-07T02:37:08.198Z,33.87
2019-02-07T02:39:36.267Z,28.53
2019-02-07T02:42:04.448Z,33.10
2019-02-07T02:44:33.134Z,32.87
2019-02-07T02:47:01.220Z,33.37
2019-02-07T02:49:29.280Z,32.13
2019-02-07T02:51:57.348Z,34.57
2019-02-07T02:54:41.975Z,31.67
2019-02-07T02:57:10.267Z,31.60
2019-02-07T02:59:38.794Z,33.80
2019-02-07T03:02:28.329Z,30.13
2019-02-07T03:05:18.178Z,32.77
2019-02-07T03:08:04.570Z,30.13
2019-02-07T03:11:03.798Z,34.70
2019-02-07T03:13:50.833Z,34.27
2019-02-07T03:16:49.899Z,30.90
2019-02-07T03:19:39.918Z,28.77
2019-02-07T03:22:25.793Z,30.90
2019-02-07T03:25:21.680Z,31.33
2019-02-07T03:28:08.740Z,33.20
2019-02-07T03:30:55.871Z,30.50
2019-02-07T03:33:46.090Z,39.27
2019-02-07T03:36:32.261Z,30.60
2019-02-07T03:39:25.121Z,32.83
2019-02-07T03:42:10.782Z,26.50
2019-02-07T03:45:10.094Z,29.77
2019-02-07T03:48:06.829Z,34.50
2019-02-07T03:50:53.919Z,33.13
2019-02-07T03:53:40.015Z,33.73
2019-02-07T03:56:30.122Z,33.50
2019-02-07T03:59:29.013Z,36.73
2019-02-07T04:02:14.935Z,37.13
2019-02-07T04:05:14.037Z,39.17
2019-02-07T04:08:16.419Z,34.03
2019-02-07T04:11:06.239Z,33.73
2019-02-07T04:13:53.298Z,36.23
2019-02-07T04:16:37.983Z,37.10
2019-02-07T04:19:40.388Z,30.23
2019-02-07T04:22:39.919Z,28.57
2019-02-07T04:25:27.354Z,30.30
2019-02-07T04:28:19.296Z,39.63
2019-02-07T04:31:09.357Z,31.83
2019-02-07T04:33:55.434Z,29.47
2019-02-07T04:36:39.857Z,31.77
2019-02-07T04:39:27.699Z,29.17
2019-02-07T04:42:09.670Z,29.53
2019-02-07T04:45:06.037Z,27.67
2019-02-07T04:47:58.997Z,28.07
2019-02-07T04:50:41.652Z,31.53
2019-02-07T04:53:31.495Z,27.73
2019-02-07T04:56:18.575Z,32.73
2019-02-07T04:59:08.948Z,31.50
2019-02-07T05:01:54.797Z,27.97
2019-02-07T05:04:41.919Z,30.67
2019-02-07T05:07:24.354Z,27.30
2019-02-07T05:10:14.453Z,25.43
2019-02-07T05:12:55.841Z,32.57
2019-02-07T05:15:41.730Z,29.30
2019-02-07T05:18:27.660Z,31.17
2019-02-07T05:21:04.798Z,30.80
2019-02-07T05:23:55.073Z,30.63
2019-02-07T05:26:42.642Z,28.60
2019-02-07T05:29:41.860Z,29.73
2019-02-07T05:32:36.291Z,30.70
2019-02-07T05:35:22.642Z,29.90
2019-02-07T05:38:09.041Z,27.77
2019-02-07T05:41:05.149Z,25.60
2019-02-07T05:43:48.662Z,31.73
2019-02-07T05:46:38.775Z,35.87
2019-02-07T05:49:30.226Z,29.97
2019-02-07T05:52:15.810Z,32.77
2019-02-07T05:55:01.586Z,31.63
2019-02-07T05:57:46.179Z,32.57
2019-02-07T06:00:36.922Z,31.03
2019-02-07T06:03:30.102Z,30.03
2019-02-07T06:06:23.255Z,32.47
2019-02-07T06:09:13.510Z,29.93
2019-02-07T06:12:15.727Z,27.93
2019-02-07T06:15:11.705Z,34.67
2019-02-07T06:18:11.114Z,28.77
2019-02-07T06:21:00.945Z,28.50
2019-02-07T06:23:46.522Z,32.37
2019-02-07T06:26:42.619Z,32.70
2019-02-07T06:29:29.780Z,34.63
2019-02-07T06:32:19.859Z,31.57
2019-02-07T06:35:07.764Z,32.43
2019-02-07T06:37:54.137Z,32.73
2019-02-07T06:40:44.058Z,30.53
2019-02-07T06:43:30.205Z,27.63
2019-02-07T06:46:20.010Z,35.37
2019-02-07T06:49:00.220Z,29.17
2019-02-07T06:51:53.146Z,29.53
2019-02-07T06:54:40.237Z,35.30
2019-02-07T06:57:26.365Z,36.47
2019-02-07T07:00:16.299Z,34.43
2019-02-07T07:03:02.403Z,31.50
2019-02-07T07:05:49.433Z,28.57
2019-02-07T07:08:48.494Z,36.50
2019-02-07T07:11:38.318Z,28.37
2019-02-07T07:14:24.205Z,35.63
2019-02-07T07:17:25.491Z,36.33
2019-02-07T07:20:02.396Z,32.27
2019-02-07T07:23:04.534Z,30.57
2019-02-07T07:25:50.704Z,28.60
2019-02-07T07:28:39.974Z,29.27
2019-02-07T07:31:19.525Z,39.00
2019-02-07T07:34:15.825Z,34.80
2019-02-07T07:37:12.129Z,32.27
2019-02-07T07:40:14.532Z,29.70
2019-02-07T07:43:00.222Z,32.57
2019-02-07T07:45:42.142Z,28.67
2019-02-07T07:48:28.055Z,26.50
2019-02-07T07:51:14.161Z,28.40
2019-02-07T07:54:05.178Z,37.00
2019-02-07T07:56:55.043Z,30.87
2019-02-07T07:59:41.850Z,30.13
2019-02-07T08:02:37.811Z,32.77
2019-02-07T08:05:23.048Z,28.67
2019-02-07T08:08:16.158Z,28.53
2019-02-07T08:10:53.715Z,29.30
2019-02-07T08:13:40.808Z,28.20
2019-02-07T08:16:27.857Z,26.60
2019-02-07T08:19:13.768Z,24.77
2019-02-07T08:22:06.910Z,29.40
2019-02-07T08:24:52.518Z,26.37
2019-02-07T08:27:51.621Z,28.43
2019-02-07T08:30:56.993Z,29.77
2019-02-07T08:33:44.449Z,29.80
2019-02-07T08:36:28.807Z,27.53
2019-02-07T08:39:13.249Z,27.63
2019-02-07T08:42:06.651Z,34.03
2019-02-07T08:45:09.004Z,28.83
2019-02-07T08:48:08.258Z,30.93
2019-02-07T08:50:54.374Z,29.00
2019-02-07T08:53:50.793Z,32.37
2019-02-07T08:56:31.377Z,29.63
2019-02-07T08:59:25.653Z,32.20
2019-02-07T09:02:18.490Z,25.93
2019-02-07T09:05:04.442Z,25.87
2019-02-07T09:07:54.614Z,27.47
2019-02-07T09:10:30.601Z,25.53
2019-02-07T09:13:23.624Z,28.83
2019-02-07T09:16:12.150Z,27.93
2019-02-07T09:19:14.353Z,25.20
2019-02-07T09:22:07.054Z,29.23
2019-02-07T09:25:09.304Z,27.93
2019-02-07T09:27:56.355Z,26.27
2019-02-07T09:30:43.437Z,24.87
2019-02-07T09:33:29.243Z,24.37
2019-02-07T09:36:25.413Z,23.27
2019-02-07T09:39:12.441Z,26.20
2019-02-07T09:41:49.473Z,22.47
2019-02-07T09:44:38.749Z,26.50
2019-02-07T09:47:24.438Z,25.07
2019-02-07T09:50:14.254Z,25.83
2019-02-07T09:53:02.170Z,24.37
2019-02-07T09:55:47.997Z,23.77
2019-02-07T09:58:34.537Z,30.50
2019-02-07T10:01:21.592Z,27.30
2019-02-07T10:04:08.664Z,25.97
2019-02-07T10:07:10.959Z,27.93
2019-02-07T10:10:02.296Z,28.30
2019-02-07T10:12:48.107Z,27.67
2019-02-07T10:15:38.234Z,28.63
2019-02-07T10:18:33.159Z,27.67
2019-02-07T10:21:17.022Z,24.23
2019-02-07T10:24:04.075Z,25.33
2019-02-07T10:27:00.129Z,26.07
2019-02-07T10:29:50.491Z,30.37
2019-02-07T10:32:49.819Z,28.77
2019-02-07T10:35:42.956Z,35.27
2019-02-07T10:38:35.880Z,26.77
2019-02-07T10:41:33.559Z,23.87
2019-02-07T10:44:26.872Z,25.97
2019-02-07T10:47:14.937Z,27.53
2019-02-07T10:49:59.433Z,24.47
2019-02-07T10:52:40.517Z,28.13
2019-02-07T10:55:27.655Z,27.40
2019-02-07T10:58:30.130Z,24.93
2019-02-07T11:01:23.486Z,28.93
2019-02-07T11:04:09.554Z,27.07
2019-02-07T11:06:55.233Z,27.93
2019-02-07T11:09:54.419Z,26.67
2019-02-07T11:12:39.090Z,25.50
2019-02-07T11:15:45.684Z,27.40
2019-02-07T11:18:32.924Z,28.10
2019-02-07T11:21:21.619Z,28.43
2019-02-07T11:24:26.824Z,26.13
2019-02-07T11:27:19.818Z,36.73
2019-02-07T11:30:05.407Z,25.23
2019-02-07T11:32:47.642Z,24.87
2019-02-07T11:35:34.477Z,28.80
2019-02-07T11:38:24.486Z,25.63
2019-02-07T11:41:11.962Z,24.53
2019-02-07T11:44:01.780Z,19.70
2019-02-07T11:47:05.171Z,25.17
2019-02-07T11:49:42.785Z,22.83
2019-02-07T11:52:32.841Z,24.07
2019-02-07T11:55:28.706Z,25.33
2019-02-07T11:58:05.645Z,19.20
2019-02-07T12:01:04.920Z,19.97
2019-02-07T12:03:44.135Z,18.67
2019-02-07T12:06:29.867Z,22.43
2019-02-07T12:09:33.694Z,20.67
2019-02-07T12:12:25.040Z,20.03
2019-02-07T12:15:30.466Z,20.43
2019-02-07T12:18:16.173Z,26.80
2019-02-07T12:21:06.035Z,24.80
2019-02-07T12:23:51.997Z,24.47
2019-02-07T12:26:31.249Z,25.17
2019-02-07T12:29:18.320Z,26.23
2019-02-07T12:32:21.854Z,21.20
2019-02-07T12:35:14.717Z,24.17
2019-02-07T12:37:55.150Z,23.73
2019-02-07T12:40:42.202Z,29.17
2019-02-07T12:43:29.434Z,25.10
2019-02-07T12:46:08.693Z,23.57
2019-02-07T12:49:01.639Z,20.73
2019-02-07T12:51:47.744Z,21.77
2019-02-07T12:54:25.001Z,26.47
2019-02-07T12:57:30.531Z,24.30
2019-02-07T13:00:15.662Z,24.73
2019-02-07T13:03:05.635Z,21.57
2019-02-07T13:06:11.361Z,22.63
2019-02-07T13:08:58.539Z,23.13
2019-02-07T13:11:48.768Z,26.63
2019-02-07T13:14:48.208Z,19.83
2019-02-07T13:17:35.270Z,19.70
2019-02-07T13:20:27.473Z,22.17
2019-02-07T13:23:16.582Z,22.47
2019-02-07T13:26:09.633Z,19.47
2019-02-07T13:29:06.269Z,21.77
2019-02-07T13:31:56.657Z,15.80
2019-02-07T13:34:42.368Z,17.77
2019-02-07T13:37:28.027Z,18.63
2019-02-07T13:40:33.338Z,24.23
2019-02-07T13:43:20.386Z,19.93
2019-02-07T13:46:22.547Z,19.63
2019-02-07T13:49:10.112Z,20.70
2019-02-07T13:52:02.842Z,19.73
2019-02-07T13:54:49.401Z,21.07
2019-02-07T13:57:35.116Z,18.70
2019-02-07T14:00:28.026Z,24.23
2019-02-07T14:03:24.338Z,23.90
2019-02-07T14:06:29.535Z,18.33
2019-02-07T14:09:13.713Z,17.93
2019-02-07T14:11:51.545Z,16.67
2019-02-07T14:14:41.627Z,18.10
2019-02-07T14:17:28.691Z,23.03
2019-02-07T14:20:10.039Z,17.63
2019-02-07T14:22:57.110Z,20.73
2019-02-07T14:25:53.332Z,17.43
2019-02-07T14:28:58.509Z,17.23
2019-02-07T14:31:45.585Z,15.33
2019-02-07T14:34:50.895Z,17.90
2019-02-07T14:37:36.276Z,17.70
2019-02-07T14:40:26.850Z,16.87
2019-02-07T14:43:32.266Z,15.03
2019-02-07T14:46:18.334Z,17.73
2019-02-07T14:48:46.542Z,17.80
2019-02-07T14:51:14.619Z,18.47
2019-02-07T14:53:42.711Z,25.80
2019-02-07T14:56:10.848Z,24.07
2019-02-07T14:58:38.935Z,22.13
2019-02-07T15:01:07.513Z,24.37
2019-02-07T15:03:35.606Z,23.40
2019-02-07T15:06:03.819Z,20.70
2019-02-07T15:08:31.906Z,25.67
2019-02-07T15:11:00.030Z,23.03
2019-02-07T15:13:28.068Z,20.73
2019-02-07T15:15:56.168Z,23.60
2019-02-07T15:18:24.853Z,21.93
2019-02-07T15:20:52.951Z,22.57
2019-02-07T15:23:21.062Z,19.57
2019-02-07T15:25:49.154Z,20.93
2019-02-07T15:28:17.318Z,18.80
2019-02-07T15:30:45.474Z,25.57
2019-02-07T15:33:13.579Z,26.77
2019-02-07T15:35:43.506Z,25.53
2019-02-07T15:38:11.561Z,23.80
2019-02-07T15:40:39.684Z,26.23
2019-02-07T15:43:07.754Z,22.67
2019-02-07T15:45:35.923Z,27.33
2019-02-07T15:48:04.292Z,21.60
2019-02-07T15:50:37.838Z,28.63
2019-02-07T15:53:03.533Z,24.63
2019-02-07T15:55:31.653Z,26.43
2019-02-07T15:57:59.766Z,23.87
2019-02-07T16:00:50.588Z,26.23
2019-02-07T16:03:37.214Z,26.77
2019-02-07T16:06:06.462Z,26.40
2019-02-07T16:08:35.018Z,28.33
2019-02-07T16:11:03.109Z,24.90
2019-02-07T16:13:31.897Z,27.10
2019-02-07T16:15:59.999Z,23.03
2019-02-07T16:18:28.080Z,23.20
2019-02-07T16:20:56.217Z,27.53
2019-02-07T16:23:24.572Z,28.20
2019-02-07T16:25:52.638Z,27.37
2019-02-07T16:28:20.831Z,24.67
2019-02-07T16:30:49.305Z,30.87
2019-02-07T16:33:18.043Z,26.00
2019-02-07T16:35:46.146Z,26.03
2019-02-07T16:38:14.219Z,27.47
2019-02-07T16:40:42.634Z,24.13
2019-02-07T16:43:10.722Z,25.77
2019-02-07T16:45:39.464Z,24.80
2019-02-07T16:48:07.524Z,22.77
2019-02-07T16:50:35.625Z,24.80
2019-02-07T16:53:04.021Z,22.80
2019-02-07T16:55:32.107Z,29.40
2019-02-07T16:58:01.273Z,27.10
2019-02-07T17:00:29.769Z,27.80
2019-02-07T17:02:58.148Z,28.27
2019-02-07T17:05:27.347Z,24.67
2019-02-07T17:07:55.602Z,27.43
2019-02-07T17:10:25.174Z,28.27
2019-02-07T17:12:53.272Z,25.47
2019-02-07T17:15:21.975Z,24.03
2019-02-07T17:17:50.554Z,38.00
2019-02-07T17:20:22.128Z,28.17
2019-02-07T17:22:50.214Z,33.73
2019-02-07T17:25:18.608Z,29.23
2019-02-07T17:27:46.689Z,27.27
2019-02-07T17:30:15.798Z,24.77
2019-02-07T17:32:43.993Z,24.17
2019-02-07T17:35:12.698Z,28.23
2019-02-07T17:37:40.844Z,26.73
2019-02-07T17:40:11.584Z,23.93
2019-02-07T17:42:39.698Z,26.17
2019-02-07T17:45:08.689Z,25.80
2019-02-07T17:47:36.796Z,29.63
2019-02-07T17:50:08.055Z,34.33
2019-02-07T17:52:36.251Z,27.13
2019-02-07T17:55:05.582Z,29.97
2019-02-07T17:57:33.786Z,29.10
2019-02-07T18:00:02.156Z,31.07
2019-02-07T18:02:30.414Z,26.03
2019-02-07T18:04:58.587Z,27.93
2019-02-07T18:07:26.832Z,28.40
2019-02-07T18:09:55.081Z,30.70
2019-02-07T18:12:23.187Z,29.60
2019-02-07T18:14:51.283Z,26.57
2019-02-07T18:17:19.452Z,28.30
2019-02-07T18:19:47.579Z,29.37
2019-02-07T18:22:15.855Z,30.90
2019-02-07T18:24:44.056Z,29.33
2019-02-07T18:27:12.267Z,29.30
2019-02-07T18:29:40.742Z,32.50
2019-02-07T18:32:09.098Z,29.43
2019-02-07T18:34:37.195Z,27.20
2019-02-07T18:37:05.689Z,27.50
2019-02-07T18:39:34.279Z,24.50
2019-02-07T18:42:02.406Z,29.97
2019-02-07T18:44:30.729Z,29.83
2019-02-07T18:46:58.856Z,29.10
2019-02-07T18:49:26.973Z,28.70
2019-02-07T18:51:55.073Z,33.63
2019-02-07T18:54:23.172Z,27.43
2019-02-07T18:56:54.354Z,27.83
2019-02-07T18:59:22.834Z,29.70
2019-02-07T19:01:50.908Z,27.60
2019-02-07T19:04:18.988Z,33.53
2019-02-07T19:06:47.090Z,32.27
2019-02-07T19:09:15.309Z,30.20
2019-02-07T19:11:43.438Z,30.97
2019-02-07T19:14:11.972Z,28.97
2019-02-07T19:16:40.753Z,30.23
2019-02-07T19:19:08.945Z,28.23
2019-02-07T19:21:37.035Z,29.97
2019-02-07T19:24:05.232Z,32.27
2019-02-07T19:26:33.477Z,28.87
2019-02-07T19:29:02.060Z,27.50
2019-02-07T19:31:30.360Z,33.90
2019-02-07T19:33:58.575Z,31.53
2019-02-07T19:36:26.732Z,30.07
2019-02-07T19:38:54.925Z,31.87
2019-02-07T19:41:23.163Z,30.13
2019-02-07T19:43:51.428Z,35.03
2019-02-07T19:46:19.774Z,35.67
2019-02-07T19:48:48.021Z,32.07
2019-02-07T19:51:16.299Z,31.13
2019-02-07T19:53:44.571Z,33.23
2019-02-07T19:56:12.903Z,33.57
2019-02-07T19:58:41.320Z,28.60
2019-02-07T20:01:09.786Z,31.73
2019-02-07T20:03:38.723Z,29.80
2019-02-07T20:06:07.272Z,29.23
2019-02-07T20:08:35.734Z,26.67
2019-02-07T20:11:04.777Z,34.70
2019-02-07T20:13:32.875Z,27.50
2019-02-07T20:16:00.973Z,28.80
2019-02-07T20:18:29.051Z,29.80
2019-02-07T20:20:57.772Z,34.00
2019-02-07T20:23:25.858Z,33.67
2019-02-07T20:25:53.942Z,36.87
2019-02-07T20:28:22.050Z,32.83
2019-02-07T20:33:18.432Z,32.27
2019-02-07T20:35:46.539Z,37.80
2019-02-07T20:38:14.735Z,37.53
2019-02-07T20:40:43.390Z,39.93
2019-02-07T20:43:11.452Z,39.70
2019-02-07T20:45:39.551Z,38.53
2019-02-07T20:48:08.797Z,39.37
2019-02-07T20:50:36.883Z,41.53
2019-02-07T20:53:05.002Z,39.23
2019-02-07T20:55:33.070Z,39.53
2019-02-07T20:58:01.170Z,35.47
2019-02-07T21:00:30.322Z,32.73
2019-02-07T21:02:58.432Z,36.37
2019-02-07T21:05:27.089Z,30.93
2019-02-07T21:07:55.158Z,34.57
2019-02-07T21:10:23.671Z,35.60
2019-02-07T21:12:53.214Z,34.17
2019-02-07T21:15:21.487Z,36.33
2019-02-07T21:17:49.662Z,37.40
2019-02-07T21:20:18.979Z,34.60
2019-02-07T21:22:47.233Z,54.10
2019-02-07T21:25:16.709Z,44.83
2019-02-07T21:27:44.843Z,48.00
2019-02-07T21:30:15.065Z,40.37
2019-02-07T21:32:43.620Z,41.37
2019-02-07T21:35:12.973Z,42.13
2019-02-07T21:37:41.314Z,40.97
2019-02-07T21:40:10.625Z,49.63
2019-02-07T21:42:38.702Z,45.97
2019-02-07T21:45:08.013Z,51.77
2019-02-07T21:47:36.089Z,44.90
2019-02-07T21:50:05.801Z,38.23
2019-02-07T21:52:33.883Z,40.80
2019-02-07T21:55:01.969Z,45.17
2019-02-07T21:57:30.106Z,37.80
2019-02-07T22:00:00.870Z,40.57
2019-02-07T22:02:27.885Z,36.07
2019-02-07T22:04:55.952Z,37.10
2019-02-07T22:07:24.566Z,40.13
2019-02-07T22:09:52.675Z,40.83
2019-02-07T22:12:21.160Z,42.27
2019-02-07T22:14:49.302Z,35.80
2019-02-07T22:17:17.326Z,36.97
2019-02-07T22:19:45.398Z,37.63
2019-02-07T22:22:13.773Z,36.00
2019-02-07T22:24:41.894Z,33.77
2019-02-07T22:27:09.971Z,36.03
2019-02-07T22:29:38.040Z,39.43
2019-02-07T22:32:06.126Z,40.20
2019-02-07T22:34:34.202Z,37.97
2019-02-07T22:37:02.281Z,40.00
2019-02-07T22:39:30.398Z,41.00
2019-02-07T22:41:58.950Z,40.20
2019-02-07T22:44:27.015Z,35.20
2019-02-07T22:46:55.085Z,36.93
2019-02-07T22:49:23.241Z,44.03
2019-02-07T22:51:51.329Z,37.77
2019-02-07T22:54:19.410Z,39.47
2019-02-07T22:56:47.488Z,41.17
2019-02-07T22:59:16.090Z,35.63
2019-02-07T23:01:45.945Z,37.27
2019-02-07T23:04:14.155Z,39.77
2019-02-07T23:06:42.338Z,40.80
2019-02-07T23:09:12.021Z,41.80
2019-02-07T23:11:40.107Z,36.23
2019-02-07T23:14:08.698Z,41.47
2019-02-07T23:16:36.810Z,42.67
2019-02-07T23:19:06.788Z,35.07
2019-02-07T23:21:34.864Z,36.93
2019-02-07T23:24:03.538Z,39.33
2019-02-07T23:26:31.623Z,43.17
2019-02-07T23:28:59.712Z,36.77
2019-02-07T23:31:27.892Z,35.40
2019-02-07T23:33:56.102Z,35.77
2019-02-07T23:36:24.298Z,31.67
2019-02-07T23:38:52.510Z,36.33
2019-02-07T23:41:20.622Z,32.00
2019-02-07T23:43:48.689Z,29.47
2019-02-07T23:46:16.761Z,34.43
2019-02-07T23:48:45.489Z,37.47
2019-02-07T23:51:13.566Z,33.10
2019-02-07T23:53:41.629Z,28.97
2019-02-07T23:56:09.808Z,28.53
2019-02-07T23:58:37.880Z,32.53
